Time,TemperatureF,DewpointF,PressureIn,WindDirection,WindDirectionDegrees,WindSpeedMPH,WindSpeedGustMPH,Humidity,HourlyPrecipIn,Conditions,Clouds,dailyrainin,SoftwareType,DateUTC
2013-04-03 00:03:00,28.0,14.0,30.32,West,276,2.0,3.0,55,0.00,,,0.00,,2013-04-03 04:03:00,
2013-04-03 00:12:00,28.0,14.0,30.32,West,276,2.0,3.0,55,0.00,,,0.00,,2013-04-03 04:12:00,
2013-04-03 00:23:00,28.0,14.0,30.32,West,275,2.0,3.0,56,0.00,,,0.00,,2013-04-03 04:23:00,
2013-04-03 00:33:00,28.0,14.0,30.32,West,275,2.0,3.0,56,0.00,,,0.00,,2013-04-03 04:33:00,
2013-04-03 00:43:00,28.0,14.0,30.32,West,275,2.0,3.0,56,0.00,,,0.00,,2013-04-03 04:43:00,
2013-04-03 00:53:00,27.0,14.0,30.32,WSW,241,2.0,3.0,57,0.00,,,0.00,,2013-04-03 04:53:00,
2013-04-03 01:03:00,27.0,13.0,30.32,WSW,241,2.0,3.0,56,0.00,,,0.00,,2013-04-03 05:03:00,
2013-04-03 01:12:00,27.0,13.0,30.32,WSW,241,2.0,3.0,56,0.00,,,0.00,,2013-04-03 05:12:00,
2013-04-03 01:22:00,27.0,13.0,30.33,WSW,241,2.0,4.0,56,0.00,,,0.00,,2013-04-03 05:22:00,
2013-04-03 01:32:00,28.0,14.0,30.33,WNW,300,2.0,4.0,55,0.00,,,0.00,,2013-04-03 05:32:00,
2013-04-03 01:42:00,28.0,14.0,30.33,WNW,300,2.0,4.0,55,0.00,,,0.00,,2013-04-03 05:42:00,
2013-04-03 01:53:00,28.0,14.0,30.33,West,277,3.0,9.0,55,0.00,,,0.00,,2013-04-03 05:53:00,
2013-04-03 02:02:00,28.0,14.0,30.33,West,278,3.0,6.0,56,0.00,,,0.00,,2013-04-03 06:02:00,
2013-04-03 02:12:00,28.0,14.0,30.33,West,278,3.0,6.0,56,0.00,,,0.00,,2013-04-03 06:12:00,
2013-04-03 02:22:00,28.0,15.0,30.33,WNW,292,2.0,5.0,57,0.00,,,0.00,,2013-04-03 06:22:00,
2013-04-03 02:32:00,28.0,15.0,30.33,WNW,292,2.0,4.0,57,0.00,,,0.00,,2013-04-03 06:32:00,
2013-04-03 02:42:00,28.0,15.0,30.33,WNW,292,2.0,4.0,57,0.00,,,0.00,,2013-04-03 06:42:00,
2013-04-03 02:52:00,26.0,14.0,30.34,WNW,292,1.0,2.0,60,0.00,,,0.00,,2013-04-03 06:52:00,
2013-04-03 03:02:00,26.0,14.0,30.34,WNW,292,1.0,2.0,61,0.00,,,0.00,,2013-04-03 07:02:00,
2013-04-03 03:12:00,26.0,14.0,30.34,WNW,292,1.0,2.0,61,0.00,,,0.00,,2013-04-03 07:12:00,
2013-04-03 03:23:00,27.0,16.0,30.34,SSW,212,0.0,2.0,62,0.00,,,0.00,,2013-04-03 07:23:00,
2013-04-03 03:33:00,26.0,15.0,30.35,SSW,212,0.0,2.0,63,0.00,,,0.00,,2013-04-03 07:33:00,
2013-04-03 03:42:00,26.0,15.0,30.35,SSW,212,0.0,2.0,63,0.00,,,0.00,,2013-04-03 07:42:00,
2013-04-03 03:53:00,26.0,16.0,30.35,SSW,212,0.0,2.0,65,0.00,,,0.00,,2013-04-03 07:53:00,
2013-04-03 04:03:00,25.0,15.0,30.35,SSW,211,1.0,2.0,66,0.00,,,0.00,,2013-04-03 08:03:00,
2013-04-03 04:12:00,25.0,15.0,30.35,SSW,211,1.0,2.0,66,0.00,,,0.00,,2013-04-03 08:12:00,
2013-04-03 04:22:00,24.0,15.0,30.35,SSW,212,0.0,2.0,67,0.00,,,0.00,,2013-04-03 08:22:00,
2013-04-03 04:32:00,24.0,15.0,30.35,SSW,211,0.0,1.0,68,0.00,,,0.00,,2013-04-03 08:32:00,
2013-04-03 04:42:00,24.0,15.0,30.35,SSW,211,0.0,1.0,68,0.00,,,0.00,,2013-04-03 08:42:00,
2013-04-03 04:52:00,24.0,15.0,30.35,SSW,212,0.0,0.0,68,0.00,,,0.00,,2013-04-03 08:52:00,
2013-04-03 05:02:00,24.0,15.0,30.36,SSW,212,0.0,2.0,68,0.00,,,0.00,,2013-04-03 09:02:00,
2013-04-03 05:12:00,24.0,15.0,30.36,SSW,212,0.0,2.0,68,0.00,,,0.00,,2013-04-03 09:12:00,
2013-04-03 05:22:00,23.0,15.0,30.36,SSW,212,1.0,3.0,70,0.00,,,0.00,,2013-04-03 09:22:00,
2013-04-03 05:33:00,23.0,15.0,30.36,WSW,250,2.0,4.0,70,0.00,,,0.00,,2013-04-03 09:33:00,
2013-04-03 05:43:00,23.0,15.0,30.36,WSW,250,2.0,4.0,70,0.00,,,0.00,,2013-04-03 09:43:00,
2013-04-03 05:53:00,23.0,15.0,30.36,WSW,250,0.0,1.0,70,0.00,,,0.00,,2013-04-03 09:53:00,
2013-04-03 06:03:00,23.0,15.0,30.36,WSW,250,0.0,0.0,71,0.00,,,0.00,,2013-04-03 10:03:00,
2013-04-03 06:12:00,23.0,15.0,30.36,WSW,250,0.0,0.0,71,0.00,,,0.00,,2013-04-03 10:12:00,
2013-04-03 06:22:00,23.0,16.0,30.37,WSW,250,1.0,2.0,74,0.00,,,0.00,,2013-04-03 10:22:00,
2013-04-03 06:33:00,23.0,16.0,30.37,WSW,250,2.0,3.0,75,0.00,,,0.00,,2013-04-03 10:33:00,
2013-04-03 06:43:00,23.0,16.0,30.37,WSW,250,2.0,3.0,75,0.00,,,0.00,,2013-04-03 10:43:00,
2013-04-03 06:53:00,23.0,17.0,30.39,WSW,249,2.0,3.0,76,0.00,,,0.00,,2013-04-03 10:53:00,
2013-04-03 07:02:00,23.0,16.0,30.39,WSW,240,1.0,4.0,74,0.00,,,0.00,,2013-04-03 11:02:00,
2013-04-03 07:12:00,23.0,16.0,30.39,WSW,240,1.0,4.0,74,0.00,,,0.00,,2013-04-03 11:12:00,
2013-04-03 07:23:00,23.0,16.0,30.39,WSW,240,0.0,2.0,73,0.00,,,0.00,,2013-04-03 11:23:00,
2013-04-03 07:32:00,23.0,16.0,30.40,WSW,240,0.0,1.0,73,0.00,,,0.00,,2013-04-03 11:32:00,
2013-04-03 07:42:00,23.0,16.0,30.40,WSW,240,0.0,1.0,73,0.00,,,0.00,,2013-04-03 11:42:00,
2013-04-03 07:53:00,22.0,15.0,30.39,WSW,240,0.0,0.0,74,0.00,,,0.00,,2013-04-03 11:53:00,
2013-04-03 08:02:00,21.0,14.0,30.39,WSW,240,0.0,0.0,74,0.00,,,0.00,,2013-04-03 12:02:00,
2013-04-03 08:13:00,21.0,14.0,30.39,WSW,240,0.0,0.0,74,0.00,,,0.00,,2013-04-03 12:13:00,
2013-04-03 08:22:00,22.0,16.0,30.40,WSW,240,0.0,2.0,77,0.00,,,0.00,,2013-04-03 12:22:00,
2013-04-03 08:33:00,24.0,18.0,30.40,WSW,240,2.0,3.0,78,0.00,,,0.00,,2013-04-03 12:33:00,
2013-04-03 08:42:00,24.0,18.0,30.40,WSW,240,2.0,3.0,78,0.00,,,0.00,,2013-04-03 12:42:00,
2013-04-03 08:52:00,29.0,20.0,30.40,West,267,4.0,9.0,70,0.00,,,0.00,,2013-04-03 12:52:00,
2013-04-03 09:02:00,30.0,21.0,30.40,West,272,2.0,6.0,68,0.00,,,0.00,,2013-04-03 13:02:00,
2013-04-03 09:12:00,30.0,21.0,30.40,West,272,2.0,6.0,68,0.00,,,0.00,,2013-04-03 13:12:00,
2013-04-03 09:22:00,33.0,22.0,30.42,West,265,2.0,9.0,63,0.00,,,0.00,,2013-04-03 13:22:00,
2013-04-03 09:32:00,34.0,22.0,30.43,West,281,4.0,7.0,60,0.00,,,0.00,,2013-04-03 13:32:00,
2013-04-03 09:42:00,34.0,22.0,30.43,West,281,4.0,7.0,60,0.00,,,0.00,,2013-04-03 13:42:00,
2013-04-03 09:52:00,37.0,23.0,30.44,West,279,3.0,10.0,57,0.00,,,0.00,,2013-04-03 13:52:00,
2013-04-03 10:02:00,38.0,23.0,30.45,SW,219,3.0,9.0,54,0.00,,,0.00,,2013-04-03 14:02:00,
2013-04-03 10:12:00,38.0,23.0,30.45,SW,219,3.0,9.0,54,0.00,,,0.00,,2013-04-03 14:12:00,
2013-04-03 10:22:00,36.0,21.0,30.45,WSW,255,4.0,10.0,54,0.00,,,0.00,,2013-04-03 14:22:00,
2013-04-03 10:32:00,38.0,24.0,30.45,West,263,5.0,11.0,56,0.00,,,0.00,,2013-04-03 14:32:00,
2013-04-03 10:42:00,38.0,24.0,30.45,West,263,5.0,11.0,56,0.00,,,0.00,,2013-04-03 14:42:00,
2013-04-03 10:52:00,40.0,24.0,30.46,WNW,291,4.0,11.0,52,0.00,,,0.00,,2013-04-03 14:52:00,
2013-04-03 11:02:00,42.0,24.0,30.46,West,273,6.0,11.0,49,0.00,,,0.00,,2013-04-03 15:02:00,
2013-04-03 11:12:00,42.0,24.0,30.46,West,273,6.0,11.0,49,0.00,,,0.00,,2013-04-03 15:12:00,
2013-04-03 11:23:00,42.0,24.0,30.47,West,266,4.0,13.0,48,0.00,,,0.00,,2013-04-03 15:23:00,
2013-04-03 11:33:00,43.0,23.0,30.47,WSW,250,7.0,14.0,45,0.00,,,0.00,,2013-04-03 15:33:00,
2013-04-03 11:43:00,43.0,23.0,30.47,WSW,250,7.0,14.0,45,0.00,,,0.00,,2013-04-03 15:43:00,
2013-04-03 11:53:00,44.0,22.0,30.47,WNW,295,10.0,17.0,42,0.00,,,0.00,,2013-04-03 15:53:00,
2013-04-03 12:03:00,45.0,24.0,30.47,West,270,6.0,14.0,43,0.00,,,0.00,,2013-04-03 16:03:00,
2013-04-03 12:13:00,45.0,24.0,30.47,West,270,6.0,14.0,43,0.00,,,0.00,,2013-04-03 16:13:00,
2013-04-03 12:24:00,45.0,23.0,30.47,WNW,286,9.0,14.0,41,0.00,,,0.00,,2013-04-03 16:24:00,
2013-04-03 12:33:00,46.0,24.0,30.47,NW,314,10.0,15.0,41,0.00,,,0.00,,2013-04-03 16:33:00,
2013-04-03 12:43:00,46.0,24.0,30.47,NW,314,10.0,15.0,41,0.00,,,0.00,,2013-04-03 16:43:00,
2013-04-03 12:53:00,47.0,23.0,30.47,West,277,7.0,13.0,39,0.00,,,0.00,,2013-04-03 16:53:00,
2013-04-03 13:03:00,45.0,21.0,30.47,West,267,7.0,14.0,38,0.00,,,0.00,,2013-04-03 17:03:00,
2013-04-03 13:13:00,45.0,21.0,30.47,West,267,7.0,14.0,38,0.00,,,0.00,,2013-04-03 17:13:00,
2013-04-03 13:23:00,50.0,27.0,30.46,WSW,255,4.0,14.0,41,0.00,,,0.00,,2013-04-03 17:23:00,
2013-04-03 13:33:00,51.0,25.0,30.47,WSW,246,8.0,18.0,36,0.00,,,0.00,,2013-04-03 17:33:00,
2013-04-03 13:46:00,51.0,25.0,30.47,WSW,246,8.0,18.0,36,0.00,,,0.00,,2013-04-03 17:46:00,
2013-04-03 13:54:00,48.0,25.0,30.46,West,273,4.0,15.0,41,0.00,,,0.00,,2013-04-03 17:54:00,
2013-04-03 14:02:00,51.0,26.0,30.45,NW,319,12.0,17.0,38,0.00,,,0.00,,2013-04-03 18:02:00,
2013-04-03 14:13:00,51.0,26.0,30.45,NW,319,12.0,17.0,38,0.00,,,0.00,,2013-04-03 18:13:00,
2013-04-03 14:23:00,51.0,22.0,30.46,NW,309,12.0,15.0,32,0.00,,,0.00,,2013-04-03 18:23:00,
2013-04-03 14:33:00,48.0,22.0,30.46,WNW,300,3.0,16.0,35,0.00,,,0.00,,2013-04-03 18:33:00,
2013-04-03 14:43:00,48.0,22.0,30.46,WNW,300,3.0,16.0,35,0.00,,,0.00,,2013-04-03 18:43:00,
2013-04-03 14:52:00,52.0,23.0,30.46,WNW,284,10.0,15.0,32,0.00,,,0.00,,2013-04-03 18:52:00,
2013-04-03 15:12:00,51.0,20.0,30.45,SSW,200,4.0,16.0,29,0.00,,,0.00,,2013-04-03 19:12:00,
2013-04-03 15:22:00,49.0,21.0,30.44,West,260,4.0,15.0,33,0.00,,,0.00,,2013-04-03 19:22:00,
2013-04-03 15:32:00,52.0,24.0,30.44,NW,321,8.0,15.0,33,0.00,,,0.00,,2013-04-03 19:32:00,
2013-04-03 15:42:00,52.0,24.0,30.44,NW,321,8.0,15.0,33,0.00,,,0.00,,2013-04-03 19:42:00,
2013-04-03 15:52:00,52.0,22.0,30.43,WNW,303,8.0,17.0,31,0.00,,,0.00,,2013-04-03 19:52:00,
2013-04-03 16:02:00,53.0,24.0,30.43,NW,314,5.0,21.0,32,0.00,,,0.00,,2013-04-03 20:02:00,
2013-04-03 16:12:00,53.0,24.0,30.43,NW,314,5.0,21.0,32,0.00,,,0.00,,2013-04-03 20:12:00,
2013-04-03 16:23:00,55.0,23.0,30.42,NW,311,5.0,14.0,29,0.00,,,0.00,,2013-04-03 20:23:00,
2013-04-03 16:32:00,55.0,23.0,30.42,NW,311,5.0,14.0,29,0.00,,,0.00,,2013-04-03 20:32:00,
2013-04-03 16:42:00,55.0,23.0,30.42,NW,311,5.0,14.0,29,0.00,,,0.00,,2013-04-03 20:42:00,
2013-04-03 16:53:00,52.0,21.0,30.42,NNW,332,13.0,18.0,29,0.00,,,0.00,,2013-04-03 20:53:00,
2013-04-03 17:02:00,53.0,22.0,30.42,North,355,8.0,14.0,29,0.00,,,0.00,,2013-04-03 21:02:00,
2013-04-03 17:12:00,53.0,22.0,30.42,North,355,8.0,14.0,29,0.00,,,0.00,,2013-04-03 21:12:00,
2013-04-03 17:22:00,52.0,20.0,30.42,NW,315,7.0,18.0,28,0.00,,,0.00,,2013-04-03 21:22:00,
2013-04-03 17:33:00,52.0,20.0,30.42,NNW,331,9.0,14.0,28,0.00,,,0.00,,2013-04-03 21:33:00,
2013-04-03 17:42:00,52.0,20.0,30.42,NNW,331,9.0,14.0,28,0.00,,,0.00,,2013-04-03 21:42:00,
2013-04-03 17:52:00,52.0,20.0,30.42,North,11,7.0,11.0,28,0.00,,,0.00,,2013-04-03 21:52:00,
2013-04-03 18:02:00,52.0,20.0,30.42,NNW,343,7.0,12.0,28,0.00,,,0.00,,2013-04-03 22:02:00,
2013-04-03 18:13:00,52.0,20.0,30.42,NNW,343,7.0,12.0,28,0.00,,,0.00,,2013-04-03 22:13:00,
2013-04-03 18:22:00,52.0,20.0,30.42,North,355,5.0,11.0,28,0.00,,,0.00,,2013-04-03 22:22:00,
2013-04-03 18:33:00,51.0,19.0,30.42,NNE,18,5.0,13.0,28,0.00,,,0.00,,2013-04-03 22:33:00,
2013-04-03 18:42:00,51.0,19.0,30.42,NNE,18,5.0,13.0,28,0.00,,,0.00,,2013-04-03 22:42:00,
2013-04-03 18:52:00,49.0,18.0,30.42,North,9,5.0,12.0,29,0.00,,,0.00,,2013-04-03 22:52:00,
2013-04-03 19:02:00,49.0,18.0,30.42,North,355,5.0,15.0,29,0.00,,,0.00,,2013-04-03 23:02:00,
2013-04-03 19:12:00,49.0,18.0,30.42,North,355,5.0,15.0,29,0.00,,,0.00,,2013-04-03 23:12:00,
2013-04-03 19:22:00,47.0,18.0,30.42,NNE,13,7.0,10.0,31,0.00,,,0.00,,2013-04-03 23:22:00,
2013-04-03 19:32:00,45.0,17.0,30.42,NNE,17,7.0,11.0,32,0.00,,,0.00,,2013-04-03 23:32:00,
2013-04-03 19:42:00,45.0,17.0,30.42,NNE,17,7.0,11.0,32,0.00,,,0.00,,2013-04-03 23:42:00,
2013-04-03 19:54:00,43.0,17.0,30.42,NNE,21,5.0,8.0,35,0.00,,,0.00,,2013-04-03 23:54:00,
2013-04-03 20:03:00,42.0,18.0,30.42,NNE,22,4.0,6.0,37,0.00,,,0.00,,2013-04-04 00:03:00,
2013-04-03 20:12:00,42.0,18.0,30.42,NNE,22,4.0,6.0,37,0.00,,,0.00,,2013-04-04 00:12:00,
2013-04-03 20:22:00,39.0,16.0,30.41,NE,44,3.0,4.0,38,0.00,,,0.00,,2013-04-04 00:22:00,
2013-04-03 20:32:00,38.0,16.0,30.41,NE,44,2.0,4.0,41,0.00,,,0.00,,2013-04-04 00:32:00,
2013-04-03 20:43:00,38.0,16.0,30.41,NE,44,2.0,4.0,41,0.00,,,0.00,,2013-04-04 00:43:00,
2013-04-03 20:52:00,38.0,17.0,30.42,NE,44,0.0,2.0,42,0.00,,,0.00,,2013-04-04 00:52:00,
2013-04-03 21:02:00,37.0,16.0,30.41,NE,44,0.0,1.0,42,0.00,,,0.00,,2013-04-04 01:02:00,
2013-04-03 21:12:00,37.0,16.0,30.41,NE,44,0.0,1.0,42,0.00,,,0.00,,2013-04-04 01:12:00,
2013-04-03 21:22:00,37.0,16.0,30.41,NE,44,0.0,1.0,42,0.00,,,0.00,,2013-04-04 01:22:00,
2013-04-03 21:32:00,36.0,16.0,30.41,NE,44,0.0,1.0,43,0.00,,,0.00,,2013-04-04 01:32:00,
2013-04-03 21:43:00,36.0,16.0,30.41,NE,44,0.0,1.0,43,0.00,,,0.00,,2013-04-04 01:43:00,
2013-04-03 21:52:00,34.0,16.0,30.41,NE,44,2.0,3.0,47,0.00,,,0.00,,2013-04-04 01:52:00,
2013-04-03 22:02:00,34.0,16.0,30.41,NE,44,2.0,3.0,47,0.00,,,0.00,,2013-04-04 02:02:00,
2013-04-03 22:12:00,34.0,16.0,30.41,NE,44,2.0,3.0,47,0.00,,,0.00,,2013-04-04 02:12:00,
2013-04-03 22:22:00,34.0,16.0,30.41,NE,44,3.0,4.0,48,0.00,,,0.00,,2013-04-04 02:22:00,
2013-04-03 22:32:00,34.0,16.0,30.41,NE,44,2.0,4.0,48,0.00,,,0.00,,2013-04-04 02:32:00,
2013-04-03 22:42:00,34.0,16.0,30.41,NE,44,2.0,4.0,48,0.00,,,0.00,,2013-04-04 02:42:00,
2013-04-03 22:53:00,34.0,16.0,30.41,NE,44,2.0,4.0,48,0.00,,,0.00,,2013-04-04 02:53:00,
2013-04-03 23:02:00,34.0,18.0,30.42,ENE,59,6.0,9.0,51,0.00,,,0.00,,2013-04-04 03:02:00,
2013-04-03 23:12:00,34.0,18.0,30.42,ENE,59,6.0,9.0,51,0.00,,,0.00,,2013-04-04 03:12:00,
2013-04-03 23:22:00,32.0,19.0,30.42,ENE,59,4.0,6.0,57,0.00,,,0.00,,2013-04-04 03:22:00,
2013-04-03 23:33:00,32.0,19.0,30.41,NE,53,4.0,6.0,58,0.00,,,0.00,,2013-04-04 03:33:00,
2013-04-03 23:45:00,32.0,19.0,30.41,NE,53,4.0,6.0,58,0.00,,,0.00,,2013-04-04 03:45:00,
2013-04-03 23:53:00,30.0,18.0,30.41,ENE,57,4.0,6.0,61,0.00,,,0.00,,2013-04-04 03:53:00,